sensor_id;sensor_type;location;lat;lon;timestamp;temperature;humidity
8565;DHT22;4320;51.498;6.556;2022-08-21T00:02:03;19.40;1.00
8565;DHT22;4320;51.498;6.556;2022-08-21T00:04:29;19.30;1.00
8565;DHT22;4320;51.498;6.556;2022-08-21T00:06:56;19.30;3.90
8565;DHT22;4320;51.498;6.556;2022-08-21T00:09:22;19.40;4.00
8565;DHT22;4320;51.498;6.556;2022-08-21T00:11:48;19.30;3.80
8565;DHT22;4320;51.498;6.556;2022-08-21T00:14:14;19.20;3.90
8565;DHT22;4320;51.498;6.556;2022-08-21T00:16:40;19.20;4.00
8565;DHT22;4320;51.498;6.556;2022-08-21T00:19:07;19.30;3.90
8565;DHT22;4320;51.498;6.556;2022-08-21T00:21:34;19.30;4.00
8565;DHT22;4320;51.498;6.556;2022-08-21T00:24:01;19.30;3.90
8565;DHT22;4320;51.498;6.556;2022-08-21T00:26:26;19.30;3.90
8565;DHT22;4320;51.498;6.556;2022-08-21T00:28:52;19.30;3.90
8565;DHT22;4320;51.498;6.556;2022-08-21T00:31:18;19.20;4.00
8565;DHT22;4320;51.498;6.556;2022-08-21T00:33:45;19.20;3.90
8565;DHT22;4320;51.498;6.556;2022-08-21T00:36:11;19.20;4.00
8565;DHT22;4320;51.498;6.556;2022-08-21T00:38:37;19.30;4.00
8565;DHT22;4320;51.498;6.556;2022-08-21T00:41:05;19.30;4.10
8565;DHT22;4320;51.498;6.556;2022-08-21T00:43:33;19.20;4.00
8565;DHT22;4320;51.498;6.556;2022-08-21T00:46:00;19.10;3.80
8565;DHT22;4320;51.498;6.556;2022-08-21T00:48:26;19.20;3.90
8565;DHT22;4320;51.498;6.556;2022-08-21T00:50:58;19.10;3.90
8565;DHT22;4320;51.498;6.556;2022-08-21T00:53:27;19.20;3.90
8565;DHT22;4320;51.498;6.556;2022-08-21T00:55:53;19.20;3.90
8565;DHT22;4320;51.498;6.556;2022-08-21T00:58:20;19.20;3.90
8565;DHT22;4320;51.498;6.556;2022-08-21T01:00:48;19.10;3.80
8565;DHT22;4320;51.498;6.556;2022-08-21T01:03:18;19.10;3.80
8565;DHT22;4320;51.498;6.556;2022-08-21T01:05:45;19.00;3.90
8565;DHT22;4320;51.498;6.556;2022-08-21T01:08:11;19.00;5.90
8565;DHT22;4320;51.498;6.556;2022-08-21T01:10:38;19.00;9.00
8565;DHT22;4320;51.498;6.556;2022-08-21T01:13:06;18.90;12.20
8565;DHT22;4320;51.498;6.556;2022-08-21T01:15:36;18.90;14.80
8565;DHT22;4320;51.498;6.556;2022-08-21T01:18:07;18.90;14.40
8565;DHT22;4320;51.498;6.556;2022-08-21T01:20:34;18.90;15.50
8565;DHT22;4320;51.498;6.556;2022-08-21T01:23:02;18.80;17.80
8565;DHT22;4320;51.498;6.556;2022-08-21T01:25:29;18.70;15.30
8565;DHT22;4320;51.498;6.556;2022-08-21T01:27:55;18.80;17.80
8565;DHT22;4320;51.498;6.556;2022-08-21T01:30:26;18.70;20.80
8565;DHT22;4320;51.498;6.556;2022-08-21T01:32:52;18.70;21.30
8565;DHT22;4320;51.498;6.556;2022-08-21T01:35:20;18.70;21.30
8565;DHT22;4320;51.498;6.556;2022-08-21T01:37:47;18.60;25.00
8565;DHT22;4320;51.498;6.556;2022-08-21T01:40:14;18.60;28.50
8565;DHT22;4320;51.498;6.556;2022-08-21T01:42:42;18.60;29.40
8565;DHT22;4320;51.498;6.556;2022-08-21T01:45:09;18.60;29.60
8565;DHT22;4320;51.498;6.556;2022-08-21T01:47:35;18.60;29.80
8565;DHT22;4320;51.498;6.556;2022-08-21T01:50:03;18.60;30.00
8565;DHT22;4320;51.498;6.556;2022-08-21T01:52:29;18.60;29.30
8565;DHT22;4320;51.498;6.556;2022-08-21T01:54:55;18.50;28.90
8565;DHT22;4320;51.498;6.556;2022-08-21T01:57:20;18.50;31.60
8565;DHT22;4320;51.498;6.556;2022-08-21T01:59:46;18.50;35.70
8565;DHT22;4320;51.498;6.556;2022-08-21T02:02:12;18.40;33.90
8565;DHT22;4320;51.498;6.556;2022-08-21T02:04:37;18.40;37.30
8565;DHT22;4320;51.498;6.556;2022-08-21T02:07:03;18.40;41.30
8565;DHT22;4320;51.498;6.556;2022-08-21T02:09:29;18.30;43.60
8565;DHT22;4320;51.498;6.556;2022-08-21T02:11:55;18.20;48.50
8565;DHT22;4320;51.498;6.556;2022-08-21T02:14:21;18.20;48.00
8565;DHT22;4320;51.498;6.556;2022-08-21T02:16:47;18.30;48.40
8565;DHT22;4320;51.498;6.556;2022-08-21T02:19:15;18.30;53.00
8565;DHT22;4320;51.498;6.556;2022-08-21T02:21:41;18.30;51.40
8565;DHT22;4320;51.498;6.556;2022-08-21T02:24:07;18.30;50.70
8565;DHT22;4320;51.498;6.556;2022-08-21T02:26:33;18.30;49.80
8565;DHT22;4320;51.498;6.556;2022-08-21T02:29:00;18.30;51.00
8565;DHT22;4320;51.498;6.556;2022-08-21T02:31:26;18.30;50.20
8565;DHT22;4320;51.498;6.556;2022-08-21T02:33:52;18.30;56.30
8565;DHT22;4320;51.498;6.556;2022-08-21T02:36:18;18.20;56.70
8565;DHT22;4320;51.498;6.556;2022-08-21T02:38:44;18.20;61.40
8565;DHT22;4320;51.498;6.556;2022-08-21T02:41:14;18.20;64.70
8565;DHT22;4320;51.498;6.556;2022-08-21T02:43:41;18.20;64.40
8565;DHT22;4320;51.498;6.556;2022-08-21T02:46:08;18.10;69.90
8565;DHT22;4320;51.498;6.556;2022-08-21T02:48:35;18.10;74.60
8565;DHT22;4320;51.498;6.556;2022-08-21T02:51:11;18.00;79.70
8565;DHT22;4320;51.498;6.556;2022-08-21T02:53:37;18.10;77.70
8565;DHT22;4320;51.498;6.556;2022-08-21T02:56:06;18.20;77.10
8565;DHT22;4320;51.498;6.556;2022-08-21T02:58:43;18.20;74.70
8565;DHT22;4320;51.498;6.556;2022-08-21T03:01:09;18.30;74.70
8565;DHT22;4320;51.498;6.556;2022-08-21T03:03:37;18.30;71.10
8565;DHT22;4320;51.498;6.556;2022-08-21T03:06:05;18.30;72.60
8565;DHT22;4320;51.498;6.556;2022-08-21T03:08:31;18.40;70.20
8565;DHT22;4320;51.498;6.556;2022-08-21T03:10:57;18.40;66.40
8565;DHT22;4320;51.498;6.556;2022-08-21T03:13:25;18.40;66.40
8565;DHT22;4320;51.498;6.556;2022-08-21T03:15:50;18.30;66.40
8565;DHT22;4320;51.498;6.556;2022-08-21T03:18:17;18.30;64.40
8565;DHT22;4320;51.498;6.556;2022-08-21T03:20:43;18.30;67.20
8565;DHT22;4320;51.498;6.556;2022-08-21T03:23:10;18.20;65.80
8565;DHT22;4320;51.498;6.556;2022-08-21T03:25:37;18.20;67.80
8565;DHT22;4320;51.498;6.556;2022-08-21T03:28:05;18.20;70.50
8565;DHT22;4320;51.498;6.556;2022-08-21T03:30:31;18.10;70.80
8565;DHT22;4320;51.498;6.556;2022-08-21T03:32:58;18.10;78.50
8565;DHT22;4320;51.498;6.556;2022-08-21T03:35:25;18.00;82.00
8565;DHT22;4320;51.498;6.556;2022-08-21T03:37:50;18.00;82.10
8565;DHT22;4320;51.498;6.556;2022-08-21T03:40:18;18.00;84.20
8565;DHT22;4320;51.498;6.556;2022-08-21T03:42:44;18.00;83.80
8565;DHT22;4320;51.498;6.556;2022-08-21T03:45:13;18.00;83.30
8565;DHT22;4320;51.498;6.556;2022-08-21T03:47:49;18.00;81.30
8565;DHT22;4320;51.498;6.556;2022-08-21T03:50:15;18.00;81.50
8565;DHT22;4320;51.498;6.556;2022-08-21T03:52:42;18.00;81.10
8565;DHT22;4320;51.498;6.556;2022-08-21T03:55:08;18.00;82.10
8565;DHT22;4320;51.498;6.556;2022-08-21T03:57:33;17.90;84.00
8565;DHT22;4320;51.498;6.556;2022-08-21T03:59:59;17.70;90.60
8565;DHT22;4320;51.498;6.556;2022-08-21T04:02:25;17.60;90.10
8565;DHT22;4320;51.498;6.556;2022-08-21T04:04:50;17.60;94.20
8565;DHT22;4320;51.498;6.556;2022-08-21T04:07:16;17.50;96.80
8565;DHT22;4320;51.498;6.556;2022-08-21T04:09:43;17.50;99.90
8565;DHT22;4320;51.498;6.556;2022-08-21T04:12:08;17.50;99.90
8565;DHT22;4320;51.498;6.556;2022-08-21T04:14:34;17.50;99.90
8565;DHT22;4320;51.498;6.556;2022-08-21T04:17:00;17.50;99.90
8565;DHT22;4320;51.498;6.556;2022-08-21T04:19:25;17.40;99.90
8565;DHT22;4320;51.498;6.556;2022-08-21T04:21:51;17.40;99.90
8565;DHT22;4320;51.498;6.556;2022-08-21T04:24:17;17.50;99.90
8565;DHT22;4320;51.498;6.556;2022-08-21T04:26:44;17.60;99.90
8565;DHT22;4320;51.498;6.556;2022-08-21T04:29:10;17.70;99.90
8565;DHT22;4320;51.498;6.556;2022-08-21T04:31:36;17.60;99.90
8565;DHT22;4320;51.498;6.556;2022-08-21T04:34:03;17.60;99.90
8565;DHT22;4320;51.498;6.556;2022-08-21T04:36:30;17.60;99.90
8565;DHT22;4320;51.498;6.556;2022-08-21T04:38:55;17.60;99.90
8565;DHT22;4320;51.498;6.556;2022-08-21T04:41:21;17.60;99.90
8565;DHT22;4320;51.498;6.556;2022-08-21T04:43:47;17.70;99.90
8565;DHT22;4320;51.498;6.556;2022-08-21T04:46:12;17.70;99.90
8565;DHT22;4320;51.498;6.556;2022-08-21T04:48:38;17.70;99.90
8565;DHT22;4320;51.498;6.556;2022-08-21T04:51:16;17.60;99.90
8565;DHT22;4320;51.498;6.556;2022-08-21T04:53:47;17.70;99.90
8565;DHT22;4320;51.498;6.556;2022-08-21T04:56:38;17.70;99.90
8565;DHT22;4320;51.498;6.556;2022-08-21T04:59:12;17.70;99.90
8565;DHT22;4320;51.498;6.556;2022-08-21T05:01:40;17.80;99.90
8565;DHT22;4320;51.498;6.556;2022-08-21T05:04:09;17.80;99.90
8565;DHT22;4320;51.498;6.556;2022-08-21T05:06:37;17.90;99.90
8565;DHT22;4320;51.498;6.556;2022-08-21T05:09:04;17.90;99.90
8565;DHT22;4320;51.498;6.556;2022-08-21T05:11:31;17.90;99.90
8565;DHT22;4320;51.498;6.556;2022-08-21T05:13:57;17.90;99.90
8565;DHT22;4320;51.498;6.556;2022-08-21T05:16:23;18.00;97.30
8565;DHT22;4320;51.498;6.556;2022-08-21T05:18:48;18.00;94.70
8565;DHT22;4320;51.498;6.556;2022-08-21T05:21:14;18.10;92.80
8565;DHT22;4320;51.498;6.556;2022-08-21T05:23:40;18.10;90.50
8565;DHT22;4320;51.498;6.556;2022-08-21T05:26:05;18.10;90.00
8565;DHT22;4320;51.498;6.556;2022-08-21T05:28:31;18.10;86.40
8565;DHT22;4320;51.498;6.556;2022-08-21T05:30:57;18.10;83.40
8565;DHT22;4320;51.498;6.556;2022-08-21T05:33:23;18.10;77.50
8565;DHT22;4320;51.498;6.556;2022-08-21T05:35:51;18.10;75.50
8565;DHT22;4320;51.498;6.556;2022-08-21T05:38:17;18.10;72.60
8565;DHT22;4320;51.498;6.556;2022-08-21T05:40:43;18.10;70.60
8565;DHT22;4320;51.498;6.556;2022-08-21T05:43:09;18.10;68.90
8565;DHT22;4320;51.498;6.556;2022-08-21T05:45:35;18.20;67.60
8565;DHT22;4320;51.498;6.556;2022-08-21T05:48:12;18.20;63.60
8565;DHT22;4320;51.498;6.556;2022-08-21T05:50:38;18.20;60.30
8565;DHT22;4320;51.498;6.556;2022-08-21T05:53:04;18.20;59.40
8565;DHT22;4320;51.498;6.556;2022-08-21T05:55:30;18.20;58.90
8565;DHT22;4320;51.498;6.556;2022-08-21T05:57:56;18.20;59.30
8565;DHT22;4320;51.498;6.556;2022-08-21T06:00:22;18.30;57.40
8565;DHT22;4320;51.498;6.556;2022-08-21T06:02:49;18.50;56.30
8565;DHT22;4320;51.498;6.556;2022-08-21T06:05:16;19.00;50.30
8565;DHT22;4320;51.498;6.556;2022-08-21T06:07:42;19.40;37.20
8565;DHT22;4320;51.498;6.556;2022-08-21T06:10:08;19.60;27.80
8565;DHT22;4320;51.498;6.556;2022-08-21T06:12:34;19.60;21.20
8565;DHT22;4320;51.498;6.556;2022-08-21T06:15:00;19.70;16.40
8565;DHT22;4320;51.498;6.556;2022-08-21T06:17:26;19.80;10.10
8565;DHT22;4320;51.498;6.556;2022-08-21T06:19:52;20.10;4.50
8565;DHT22;4320;51.498;6.556;2022-08-21T06:22:18;20.80;5.00
8565;DHT22;4320;51.498;6.556;2022-08-21T06:24:44;21.30;1.00
8565;DHT22;4320;51.498;6.556;2022-08-21T06:27:09;21.20;1.00
8565;DHT22;4320;51.498;6.556;2022-08-21T06:29:35;21.10;1.00
8565;DHT22;4320;51.498;6.556;2022-08-21T06:32:02;20.90;1.00
8565;DHT22;4320;51.498;6.556;2022-08-21T06:34:27;20.70;1.00
8565;DHT22;4320;51.498;6.556;2022-08-21T06:36:53;20.50;1.00
8565;DHT22;4320;51.498;6.556;2022-08-21T06:39:19;20.50;1.00
8565;DHT22;4320;51.498;6.556;2022-08-21T06:41:45;20.40;1.00
8565;DHT22;4320;51.498;6.556;2022-08-21T06:44:10;20.40;1.00
8565;DHT22;4320;51.498;6.556;2022-08-21T06:46:36;20.50;1.00
8565;DHT22;4320;51.498;6.556;2022-08-21T06:49:02;20.50;1.00
8565;DHT22;4320;51.498;6.556;2022-08-21T06:51:28;20.80;1.00
8565;DHT22;4320;51.498;6.556;2022-08-21T06:53:54;21.00;1.00
8565;DHT22;4320;51.498;6.556;2022-08-21T06:56:20;21.60;1.00
8565;DHT22;4320;51.498;6.556;2022-08-21T06:58:46;22.30;1.00
8565;DHT22;4320;51.498;6.556;2022-08-21T07:01:12;22.70;1.00
8565;DHT22;4320;51.498;6.556;2022-08-21T07:03:41;23.40;1.00
8565;DHT22;4320;51.498;6.556;2022-08-21T07:06:09;23.40;1.00
8565;DHT22;4320;51.498;6.556;2022-08-21T07:08:36;23.20;1.00
8565;DHT22;4320;51.498;6.556;2022-08-21T07:11:06;22.80;1.00
8565;DHT22;4320;51.498;6.556;2022-08-21T07:13:34;22.50;1.00
8565;DHT22;4320;51.498;6.556;2022-08-21T07:15:59;22.50;1.00
8565;DHT22;4320;51.498;6.556;2022-08-21T07:18:25;22.70;1.00
8565;DHT22;4320;51.498;6.556;2022-08-21T07:20:51;22.00;1.00
8565;DHT22;4320;51.498;6.556;2022-08-21T07:23:28;21.60;1.00
8565;DHT22;4320;51.498;6.556;2022-08-21T07:25:54;21.10;1.00
8565;DHT22;4320;51.498;6.556;2022-08-21T07:28:20;21.00;1.00
8565;DHT22;4320;51.498;6.556;2022-08-21T07:30:51;21.10;1.00
8565;DHT22;4320;51.498;6.556;2022-08-21T07:33:17;21.10;1.00
8565;DHT22;4320;51.498;6.556;2022-08-21T07:35:43;21.10;1.00
8565;DHT22;4320;51.498;6.556;2022-08-21T07:38:09;21.10;1.00
8565;DHT22;4320;51.498;6.556;2022-08-21T07:40:35;21.30;1.00
8565;DHT22;4320;51.498;6.556;2022-08-21T07:43:00;21.30;1.00
8565;DHT22;4320;51.498;6.556;2022-08-21T07:45:26;21.20;1.00
8565;DHT22;4320;51.498;6.556;2022-08-21T07:47:52;21.50;1.00
8565;DHT22;4320;51.498;6.556;2022-08-21T07:50:19;21.70;1.00
8565;DHT22;4320;51.498;6.556;2022-08-21T07:52:44;21.80;1.00
8565;DHT22;4320;51.498;6.556;2022-08-21T07:55:12;21.80;1.00
8565;DHT22;4320;51.498;6.556;2022-08-21T07:57:38;22.40;1.00
8565;DHT22;4320;51.498;6.556;2022-08-21T08:00:06;22.40;1.00
8565;DHT22;4320;51.498;6.556;2022-08-21T08:02:32;22.30;1.00
8565;DHT22;4320;51.498;6.556;2022-08-21T08:05:00;22.20;1.00
8565;DHT22;4320;51.498;6.556;2022-08-21T08:07:26;22.10;1.00
8565;DHT22;4320;51.498;6.556;2022-08-21T08:09:52;21.90;1.00
8565;DHT22;4320;51.498;6.556;2022-08-21T08:12:17;21.70;1.00
8565;DHT22;4320;51.498;6.556;2022-08-21T08:14:43;21.50;1.00
8565;DHT22;4320;51.498;6.556;2022-08-21T08:17:12;21.60;1.00
8565;DHT22;4320;51.498;6.556;2022-08-21T08:19:39;21.30;1.00
8565;DHT22;4320;51.498;6.556;2022-08-21T08:22:19;21.30;1.00
8565;DHT22;4320;51.498;6.556;2022-08-21T08:24:46;21.00;1.00
8565;DHT22;4320;51.498;6.556;2022-08-21T08:27:12;20.80;1.00
8565;DHT22;4320;51.498;6.556;2022-08-21T08:29:38;20.90;1.00
8565;DHT22;4320;51.498;6.556;2022-08-21T08:32:05;20.80;1.00
8565;DHT22;4320;51.498;6.556;2022-08-21T08:34:33;20.90;1.00
8565;DHT22;4320;51.498;6.556;2022-08-21T08:36:58;20.80;1.00
8565;DHT22;4320;51.498;6.556;2022-08-21T08:39:25;20.80;1.00
8565;DHT22;4320;51.498;6.556;2022-08-21T08:41:59;21.00;1.00
8565;DHT22;4320;51.498;6.556;2022-08-21T08:44:27;21.10;1.00
8565;DHT22;4320;51.498;6.556;2022-08-21T08:46:53;21.10;1.00
8565;DHT22;4320;51.498;6.556;2022-08-21T08:49:24;21.30;1.00
8565;DHT22;4320;51.498;6.556;2022-08-21T08:52:20;21.40;1.00
8565;DHT22;4320;51.498;6.556;2022-08-21T08:55:07;21.30;1.00
8565;DHT22;4320;51.498;6.556;2022-08-21T08:57:35;21.20;1.00
8565;DHT22;4320;51.498;6.556;2022-08-21T09:00:06;21.30;1.00
8565;DHT22;4320;51.498;6.556;2022-08-21T09:02:33;21.40;1.00
8565;DHT22;4320;51.498;6.556;2022-08-21T09:04:59;21.50;1.00
8565;DHT22;4320;51.498;6.556;2022-08-21T09:08:02;21.60;1.00
8565;DHT22;4320;51.498;6.556;2022-08-21T09:13:43;21.70;1.00
8565;DHT22;4320;51.498;6.556;2022-08-21T09:29:22;21.60;1.00
8565;DHT22;4320;51.498;6.556;2022-08-21T09:31:49;21.70;1.00
8565;DHT22;4320;51.498;6.556;2022-08-21T09:34:26;21.70;1.00
8565;DHT22;4320;51.498;6.556;2022-08-21T09:36:52;21.80;1.00
8565;DHT22;4320;51.498;6.556;2022-08-21T09:39:30;21.90;1.00
8565;DHT22;4320;51.498;6.556;2022-08-21T09:42:02;22.10;1.00
8565;DHT22;4320;51.498;6.556;2022-08-21T09:44:32;22.10;1.00
8565;DHT22;4320;51.498;6.556;2022-08-21T09:46:58;22.20;1.00
8565;DHT22;4320;51.498;6.556;2022-08-21T09:49:33;22.30;1.00
8565;DHT22;4320;51.498;6.556;2022-08-21T09:52:00;22.20;1.00
8565;DHT22;4320;51.498;6.556;2022-08-21T09:54:35;22.20;1.00
8565;DHT22;4320;51.498;6.556;2022-08-21T09:57:14;22.30;1.00
8565;DHT22;4320;51.498;6.556;2022-08-21T10:02:47;22.20;1.00
8565;DHT22;4320;51.498;6.556;2022-08-21T10:05:18;22.30;1.00
8565;DHT22;4320;51.498;6.556;2022-08-21T10:07:45;22.20;1.00
8565;DHT22;4320;51.498;6.556;2022-08-21T10:13:08;22.40;1.00
8565;DHT22;4320;51.498;6.556;2022-08-21T10:15:41;22.40;1.00
8565;DHT22;4320;51.498;6.556;2022-08-21T10:21:26;22.50;1.00
8565;DHT22;4320;51.498;6.556;2022-08-21T10:29:14;22.80;1.00
8565;DHT22;4320;51.498;6.556;2022-08-21T10:32:03;22.80;1.00
8565;DHT22;4320;51.498;6.556;2022-08-21T10:37:31;22.80;1.00
8565;DHT22;4320;51.498;6.556;2022-08-21T10:48:39;23.20;1.00
8565;DHT22;4320;51.498;6.556;2022-08-21T10:51:37;23.20;1.00
8565;DHT22;4320;51.498;6.556;2022-08-21T10:54:11;23.30;1.00
8565;DHT22;4320;51.498;6.556;2022-08-21T10:56:40;23.30;1.00
8565;DHT22;4320;51.498;6.556;2022-08-21T11:02:09;23.40;1.00
8565;DHT22;4320;51.498;6.556;2022-08-21T11:05:11;23.50;1.00
8565;DHT22;4320;51.498;6.556;2022-08-21T11:07:51;23.50;1.00
8565;DHT22;4320;51.498;6.556;2022-08-21T11:10:31;23.60;1.00
8565;DHT22;4320;51.498;6.556;2022-08-21T11:13:03;23.60;1.00
8565;DHT22;4320;51.498;6.556;2022-08-21T11:15:43;23.70;1.00
8565;DHT22;4320;51.498;6.556;2022-08-21T11:24:17;23.80;1.00
8565;DHT22;4320;51.498;6.556;2022-08-21T11:26:47;23.70;1.00
8565;DHT22;4320;51.498;6.556;2022-08-21T11:29:23;23.70;1.00
8565;DHT22;4320;51.498;6.556;2022-08-21T11:37:06;23.90;1.00
8565;DHT22;4320;51.498;6.556;2022-08-21T11:39:47;23.80;1.00
8565;DHT22;4320;51.498;6.556;2022-08-21T11:42:21;23.90;1.00
8565;DHT22;4320;51.498;6.556;2022-08-21T11:50:17;24.00;1.00
8565;DHT22;4320;51.498;6.556;2022-08-21T11:52:53;24.10;1.00
8565;DHT22;4320;51.498;6.556;2022-08-21T11:55:26;24.20;1.00
8565;DHT22;4320;51.498;6.556;2022-08-21T11:58:04;24.40;1.00
8565;DHT22;4320;51.498;6.556;2022-08-21T12:00:39;24.60;1.00
8565;DHT22;4320;51.498;6.556;2022-08-21T12:06:04;24.80;1.00
8565;DHT22;4320;51.498;6.556;2022-08-21T12:08:35;25.00;1.00
8565;DHT22;4320;51.498;6.556;2022-08-21T12:11:22;25.10;1.00
8565;DHT22;4320;51.498;6.556;2022-08-21T12:16:33;25.20;1.00
8565;DHT22;4320;51.498;6.556;2022-08-21T12:19:11;25.20;1.00
8565;DHT22;4320;51.498;6.556;2022-08-21T12:29:47;25.30;1.00
8565;DHT22;4320;51.498;6.556;2022-08-21T12:35:14;25.70;1.00
8565;DHT22;4320;51.498;6.556;2022-08-21T12:37:47;25.90;1.00
8565;DHT22;4320;51.498;6.556;2022-08-21T12:40:30;26.10;1.00
8565;DHT22;4320;51.498;6.556;2022-08-21T12:42:59;26.50;1.00
8565;DHT22;4320;51.498;6.556;2022-08-21T12:45:40;26.80;1.00
8565;DHT22;4320;51.498;6.556;2022-08-21T12:48:14;26.90;1.00
8565;DHT22;4320;51.498;6.556;2022-08-21T12:50:46;26.60;1.00
8565;DHT22;4320;51.498;6.556;2022-08-21T12:56:12;26.70;1.00
8565;DHT22;4320;51.498;6.556;2022-08-21T12:58:44;26.90;1.00
8565;DHT22;4320;51.498;6.556;2022-08-21T13:03:45;27.30;1.00
8565;DHT22;4320;51.498;6.556;2022-08-21T13:06:17;27.10;1.00
8565;DHT22;4320;51.498;6.556;2022-08-21T13:08:45;26.80;1.00
8565;DHT22;4320;51.498;6.556;2022-08-21T13:11:16;26.80;1.00
8565;DHT22;4320;51.498;6.556;2022-08-21T13:13:43;27.10;1.00
8565;DHT22;4320;51.498;6.556;2022-08-21T13:16:28;27.30;1.00
8565;DHT22;4320;51.498;6.556;2022-08-21T13:19:06;27.60;1.00
8565;DHT22;4320;51.498;6.556;2022-08-21T13:21:39;27.80;1.00
8565;DHT22;4320;51.498;6.556;2022-08-21T13:26:46;27.80;1.00
8565;DHT22;4320;51.498;6.556;2022-08-21T13:29:16;27.60;1.00
8565;DHT22;4320;51.498;6.556;2022-08-21T13:31:51;27.70;1.00
8565;DHT22;4320;51.498;6.556;2022-08-21T13:34:18;27.30;1.00
8565;DHT22;4320;51.498;6.556;2022-08-21T13:36:45;27.40;1.00
8565;DHT22;4320;51.498;6.556;2022-08-21T13:39:16;27.30;1.00
8565;DHT22;4320;51.498;6.556;2022-08-21T13:41:45;26.70;1.00
8565;DHT22;4320;51.498;6.556;2022-08-21T13:46:43;26.00;1.00
8565;DHT22;4320;51.498;6.556;2022-08-21T13:49:10;25.80;1.00
8565;DHT22;4320;51.498;6.556;2022-08-21T13:51:39;25.70;1.00
8565;DHT22;4320;51.498;6.556;2022-08-21T13:54:23;25.50;1.00
8565;DHT22;4320;51.498;6.556;2022-08-21T13:56:50;25.60;1.00
8565;DHT22;4320;51.498;6.556;2022-08-21T13:59:48;25.60;1.00
8565;DHT22;4320;51.498;6.556;2022-08-21T14:02:17;25.50;1.00
8565;DHT22;4320;51.498;6.556;2022-08-21T14:07:17;25.40;1.00
8565;DHT22;4320;51.498;6.556;2022-08-21T14:09:45;25.50;1.00
8565;DHT22;4320;51.498;6.556;2022-08-21T14:12:41;25.60;1.00
8565;DHT22;4320;51.498;6.556;2022-08-21T14:15:08;25.60;1.00
8565;DHT22;4320;51.498;6.556;2022-08-21T14:17:37;25.70;1.00
8565;DHT22;4320;51.498;6.556;2022-08-21T14:20:09;26.00;1.00
8565;DHT22;4320;51.498;6.556;2022-08-21T14:22:43;26.20;1.00
8565;DHT22;4320;51.498;6.556;2022-08-21T14:25:39;26.10;1.00
8565;DHT22;4320;51.498;6.556;2022-08-21T14:28:23;26.10;1.00
8565;DHT22;4320;51.498;6.556;2022-08-21T14:30:51;26.10;1.00
8565;DHT22;4320;51.498;6.556;2022-08-21T14:33:42;26.20;1.00
8565;DHT22;4320;51.498;6.556;2022-08-21T14:36:07;26.10;1.00
8565;DHT22;4320;51.498;6.556;2022-08-21T14:38:35;26.10;1.00
8565;DHT22;4320;51.498;6.556;2022-08-21T14:41:08;25.90;1.00
8565;DHT22;4320;51.498;6.556;2022-08-21T14:43:36;25.80;1.00
8565;DHT22;4320;51.498;6.556;2022-08-21T14:46:02;25.80;1.00
8565;DHT22;4320;51.498;6.556;2022-08-21T14:48:28;25.90;1.00
8565;DHT22;4320;51.498;6.556;2022-08-21T14:50:53;26.00;1.00
8565;DHT22;4320;51.498;6.556;2022-08-21T14:53:19;26.10;1.00
8565;DHT22;4320;51.498;6.556;2022-08-21T14:55:44;26.10;1.00
8565;DHT22;4320;51.498;6.556;2022-08-21T14:58:29;26.20;1.00
8565;DHT22;4320;51.498;6.556;2022-08-21T15:00:55;26.10;1.00
8565;DHT22;4320;51.498;6.556;2022-08-21T15:03:24;26.10;1.00
8565;DHT22;4320;51.498;6.556;2022-08-21T15:05:50;26.00;1.00
8565;DHT22;4320;51.498;6.556;2022-08-21T15:08:17;26.00;1.00
8565;DHT22;4320;51.498;6.556;2022-08-21T15:10:43;26.10;1.00
8565;DHT22;4320;51.498;6.556;2022-08-21T15:13:09;26.00;1.00
8565;DHT22;4320;51.498;6.556;2022-08-21T15:15:44;26.00;1.00
8565;DHT22;4320;51.498;6.556;2022-08-21T15:18:11;26.10;1.00
8565;DHT22;4320;51.498;6.556;2022-08-21T15:20:37;26.10;1.00
8565;DHT22;4320;51.498;6.556;2022-08-21T15:23:04;26.10;1.00
8565;DHT22;4320;51.498;6.556;2022-08-21T15:25:31;26.00;1.00
8565;DHT22;4320;51.498;6.556;2022-08-21T15:27:57;25.80;1.00
8565;DHT22;4320;51.498;6.556;2022-08-21T15:30:23;25.90;1.00
8565;DHT22;4320;51.498;6.556;2022-08-21T15:32:49;25.80;1.00
8565;DHT22;4320;51.498;6.556;2022-08-21T15:35:15;25.90;1.00
8565;DHT22;4320;51.498;6.556;2022-08-21T15:37:41;25.90;1.00
8565;DHT22;4320;51.498;6.556;2022-08-21T15:40:07;25.90;1.00
8565;DHT22;4320;51.498;6.556;2022-08-21T15:42:34;26.00;1.00
8565;DHT22;4320;51.498;6.556;2022-08-21T15:44:59;26.10;1.00
8565;DHT22;4320;51.498;6.556;2022-08-21T15:47:29;26.20;1.00
8565;DHT22;4320;51.498;6.556;2022-08-21T15:49:55;26.20;1.00
8565;DHT22;4320;51.498;6.556;2022-08-21T15:52:21;26.10;1.00
8565;DHT22;4320;51.498;6.556;2022-08-21T15:54:47;26.00;1.00
8565;DHT22;4320;51.498;6.556;2022-08-21T15:57:17;25.80;1.00
8565;DHT22;4320;51.498;6.556;2022-08-21T15:59:47;25.80;1.00
8565;DHT22;4320;51.498;6.556;2022-08-21T16:02:27;25.70;1.00
8565;DHT22;4320;51.498;6.556;2022-08-21T16:04:53;25.60;1.00
8565;DHT22;4320;51.498;6.556;2022-08-21T16:07:19;25.50;1.00
8565;DHT22;4320;51.498;6.556;2022-08-21T16:09:45;25.50;1.00
8565;DHT22;4320;51.498;6.556;2022-08-21T16:12:27;25.40;1.00
8565;DHT22;4320;51.498;6.556;2022-08-21T16:14:56;25.50;1.00
8565;DHT22;4320;51.498;6.556;2022-08-21T16:17:31;25.40;1.00
8565;DHT22;4320;51.498;6.556;2022-08-21T16:19:57;25.30;1.00
8565;DHT22;4320;51.498;6.556;2022-08-21T16:22:24;25.30;1.00
8565;DHT22;4320;51.498;6.556;2022-08-21T16:24:50;25.30;1.00
8565;DHT22;4320;51.498;6.556;2022-08-21T16:27:16;25.20;1.00
8565;DHT22;4320;51.498;6.556;2022-08-21T16:29:42;25.20;1.00
8565;DHT22;4320;51.498;6.556;2022-08-21T16:32:08;25.30;1.00
8565;DHT22;4320;51.498;6.556;2022-08-21T16:34:35;25.30;1.00
8565;DHT22;4320;51.498;6.556;2022-08-21T16:37:00;25.30;1.00
8565;DHT22;4320;51.498;6.556;2022-08-21T16:39:26;25.20;1.00
8565;DHT22;4320;51.498;6.556;2022-08-21T16:41:53;25.30;1.00
8565;DHT22;4320;51.498;6.556;2022-08-21T16:44:21;25.20;1.00
8565;DHT22;4320;51.498;6.556;2022-08-21T16:46:47;25.10;1.00
8565;DHT22;4320;51.498;6.556;2022-08-21T16:49:13;25.00;1.00
8565;DHT22;4320;51.498;6.556;2022-08-21T16:51:39;25.00;1.00
8565;DHT22;4320;51.498;6.556;2022-08-21T16:54:05;25.00;1.00
8565;DHT22;4320;51.498;6.556;2022-08-21T16:56:31;25.00;1.00
8565;DHT22;4320;51.498;6.556;2022-08-21T16:58:57;25.10;1.00
8565;DHT22;4320;51.498;6.556;2022-08-21T17:01:27;25.00;1.00
8565;DHT22;4320;51.498;6.556;2022-08-21T17:03:54;24.90;1.00
8565;DHT22;4320;51.498;6.556;2022-08-21T17:06:23;24.90;1.00
8565;DHT22;4320;51.498;6.556;2022-08-21T17:08:49;24.80;1.00
8565;DHT22;4320;51.498;6.556;2022-08-21T17:11:39;24.70;1.00
8565;DHT22;4320;51.498;6.556;2022-08-21T17:14:09;24.70;1.00
8565;DHT22;4320;51.498;6.556;2022-08-21T17:16:38;24.60;1.00
8565;DHT22;4320;51.498;6.556;2022-08-21T17:19:04;24.50;1.00
8565;DHT22;4320;51.498;6.556;2022-08-21T17:21:31;24.50;1.00
8565;DHT22;4320;51.498;6.556;2022-08-21T17:23:57;24.40;1.00
8565;DHT22;4320;51.498;6.556;2022-08-21T17:26:23;24.40;1.00
8565;DHT22;4320;51.498;6.556;2022-08-21T17:28:49;24.40;1.00
8565;DHT22;4320;51.498;6.556;2022-08-21T17:31:15;24.40;1.00
8565;DHT22;4320;51.498;6.556;2022-08-21T17:33:46;24.40;1.00
8565;DHT22;4320;51.498;6.556;2022-08-21T17:36:24;24.40;1.00
8565;DHT22;4320;51.498;6.556;2022-08-21T17:38:50;24.40;1.00
8565;DHT22;4320;51.498;6.556;2022-08-21T17:41:16;24.30;1.00
8565;DHT22;4320;51.498;6.556;2022-08-21T17:43:42;24.30;1.00
8565;DHT22;4320;51.498;6.556;2022-08-21T17:46:11;24.40;1.00
8565;DHT22;4320;51.498;6.556;2022-08-21T17:48:39;24.30;1.00
8565;DHT22;4320;51.498;6.556;2022-08-21T17:51:05;24.30;1.00
8565;DHT22;4320;51.498;6.556;2022-08-21T17:53:30;24.20;1.00
8565;DHT22;4320;51.498;6.556;2022-08-21T17:55:56;24.20;1.00